sensor_id;sensor_type;location;lat;lon;timestamp;P1;durP1;ratioP1;P2;durP2;ratioP2
16862;SDS011;52193;48.216;-1.698;2023-06-14T00:00:05;18.92;;;17.17;;
16862;SDS011;52193;48.216;-1.698;2023-06-14T00:02:33;17.67;;;16.17;;
16862;SDS011;52193;48.216;-1.698;2023-06-14T00:04:59;17.08;;;15.60;;
16862;SDS011;52193;48.216;-1.698;2023-06-14T00:07:33;17.08;;;15.57;;
16862;SDS011;52193;48.216;-1.698;2023-06-14T00:10:03;19.83;;;18.13;;
16862;SDS011;52193;48.216;-1.698;2023-06-14T00:12:30;18.80;;;16.90;;
16862;SDS011;52193;48.216;-1.698;2023-06-14T00:14:57;18.08;;;16.50;;
16862;SDS011;52193;48.216;-1.698;2023-06-14T00:17:26;17.40;;;15.85;;
16862;SDS011;52193;48.216;-1.698;2023-06-14T00:19:55;20.23;;;18.27;;
16862;SDS011;52193;48.216;-1.698;2023-06-14T00:22:22;18.58;;;17.05;;
16862;SDS011;52193;48.216;-1.698;2023-06-14T00:24:50;20.42;;;18.63;;
16862;SDS011;52193;48.216;-1.698;2023-06-14T00:27:18;15.98;;;14.70;;
16862;SDS011;52193;48.216;-1.698;2023-06-14T00:29:45;19.48;;;17.65;;
16862;SDS011;52193;48.216;-1.698;2023-06-14T00:32:12;21.08;;;19.15;;
16862;SDS011;52193;48.216;-1.698;2023-06-14T00:34:39;16.80;;;15.43;;
16862;SDS011;52193;48.216;-1.698;2023-06-14T00:37:06;20.58;;;18.77;;
16862;SDS011;52193;48.216;-1.698;2023-06-14T00:39:33;20.08;;;18.23;;
16862;SDS011;52193;48.216;-1.698;2023-06-14T00:42:00;18.60;;;16.98;;
16862;SDS011;52193;48.216;-1.698;2023-06-14T00:44:28;20.45;;;18.75;;
16862;SDS011;52193;48.216;-1.698;2023-06-14T00:46:55;17.20;;;15.70;;
16862;SDS011;52193;48.216;-1.698;2023-06-14T00:49:22;21.60;;;19.67;;
16862;SDS011;52193;48.216;-1.698;2023-06-14T00:51:50;17.60;;;16.08;;
16862;SDS011;52193;48.216;-1.698;2023-06-14T00:54:17;19.83;;;18.13;;
16862;SDS011;52193;48.216;-1.698;2023-06-14T00:56:44;18.20;;;16.70;;
16862;SDS011;52193;48.216;-1.698;2023-06-14T00:59:11;19.35;;;17.52;;
16862;SDS011;52193;48.216;-1.698;2023-06-14T01:01:40;19.90;;;18.10;;
16862;SDS011;52193;48.216;-1.698;2023-06-14T01:04:07;21.73;;;19.60;;
16862;SDS011;52193;48.216;-1.698;2023-06-14T01:06:35;22.77;;;20.77;;
16862;SDS011;52193;48.216;-1.698;2023-06-14T01:09:14;23.98;;;21.83;;
16862;SDS011;52193;48.216;-1.698;2023-06-14T01:11:47;22.48;;;20.45;;
16862;SDS011;52193;48.216;-1.698;2023-06-14T01:14:20;23.98;;;21.83;;
16862;SDS011;52193;48.216;-1.698;2023-06-14T01:16:49;25.92;;;23.45;;
16862;SDS011;52193;48.216;-1.698;2023-06-14T01:19:18;24.35;;;22.10;;
16862;SDS011;52193;48.216;-1.698;2023-06-14T01:21:47;23.95;;;21.80;;
16862;SDS011;52193;48.216;-1.698;2023-06-14T01:24:17;20.33;;;18.60;;
16862;SDS011;52193;48.216;-1.698;2023-06-14T01:26:48;22.75;;;20.63;;
16862;SDS011;52193;48.216;-1.698;2023-06-14T01:29:16;21.10;;;19.20;;
16862;SDS011;52193;48.216;-1.698;2023-06-14T01:31:44;24.45;;;22.08;;
16862;SDS011;52193;48.216;-1.698;2023-06-14T01:34:11;23.27;;;21.08;;
16862;SDS011;52193;48.216;-1.698;2023-06-14T01:36:39;22.65;;;20.67;;
16862;SDS011;52193;48.216;-1.698;2023-06-14T01:39:08;23.13;;;21.10;;
16862;SDS011;52193;48.216;-1.698;2023-06-14T01:41:37;24.25;;;22.10;;
16862;SDS011;52193;48.216;-1.698;2023-06-14T01:44:05;24.38;;;22.15;;
16862;SDS011;52193;48.216;-1.698;2023-06-14T01:46:33;22.15;;;20.05;;
16862;SDS011;52193;48.216;-1.698;2023-06-14T01:49:00;26.05;;;23.45;;
16862;SDS011;52193;48.216;-1.698;2023-06-14T01:51:28;27.35;;;24.67;;
16862;SDS011;52193;48.216;-1.698;2023-06-14T01:53:55;27.50;;;24.70;;
16862;SDS011;52193;48.216;-1.698;2023-06-14T01:56:22;26.75;;;24.15;;
16862;SDS011;52193;48.216;-1.698;2023-06-14T01:58:50;27.27;;;24.65;;
16862;SDS011;52193;48.216;-1.698;2023-06-14T02:01:18;22.67;;;20.70;;
16862;SDS011;52193;48.216;-1.698;2023-06-14T02:03:46;24.73;;;22.40;;
16862;SDS011;52193;48.216;-1.698;2023-06-14T02:06:14;21.60;;;19.80;;
16862;SDS011;52193;48.216;-1.698;2023-06-14T02:08:41;23.73;;;21.42;;
16862;SDS011;52193;48.216;-1.698;2023-06-14T02:11:08;24.08;;;21.88;;
16862;SDS011;52193;48.216;-1.698;2023-06-14T02:13:35;26.20;;;23.70;;
16862;SDS011;52193;48.216;-1.698;2023-06-14T02:16:04;26.25;;;23.73;;
16862;SDS011;52193;48.216;-1.698;2023-06-14T02:18:31;26.38;;;23.77;;
16862;SDS011;52193;48.216;-1.698;2023-06-14T02:20:58;26.25;;;23.73;;
16862;SDS011;52193;48.216;-1.698;2023-06-14T02:23:25;28.75;;;25.98;;
16862;SDS011;52193;48.216;-1.698;2023-06-14T02:25:52;24.25;;;22.08;;
16862;SDS011;52193;48.216;-1.698;2023-06-14T02:28:19;24.27;;;21.95;;
16862;SDS011;52193;48.216;-1.698;2023-06-14T02:30:46;27.92;;;25.08;;
16862;SDS011;52193;48.216;-1.698;2023-06-14T02:33:14;26.98;;;24.38;;
16862;SDS011;52193;48.216;-1.698;2023-06-14T02:35:42;27.90;;;25.15;;
16862;SDS011;52193;48.216;-1.698;2023-06-14T02:38:09;27.35;;;24.63;;
16862;SDS011;52193;48.216;-1.698;2023-06-14T02:40:36;29.60;;;26.80;;
16862;SDS011;52193;48.216;-1.698;2023-06-14T02:43:03;24.65;;;22.35;;
16862;SDS011;52193;48.216;-1.698;2023-06-14T02:45:30;24.42;;;22.15;;
16862;SDS011;52193;48.216;-1.698;2023-06-14T02:47:57;30.40;;;27.35;;
16862;SDS011;52193;48.216;-1.698;2023-06-14T02:50:25;26.95;;;24.48;;
16862;SDS011;52193;48.216;-1.698;2023-06-14T02:52:53;28.27;;;25.70;;
16862;SDS011;52193;48.216;-1.698;2023-06-14T02:55:22;29.52;;;26.48;;
16862;SDS011;52193;48.216;-1.698;2023-06-14T02:57:49;27.52;;;24.90;;
16862;SDS011;52193;48.216;-1.698;2023-06-14T03:00:16;29.25;;;26.45;;
16862;SDS011;52193;48.216;-1.698;2023-06-14T03:02:44;28.42;;;25.50;;
16862;SDS011;52193;48.216;-1.698;2023-06-14T03:05:11;27.13;;;24.33;;
16862;SDS011;52193;48.216;-1.698;2023-06-14T03:07:40;29.38;;;26.67;;
16862;SDS011;52193;48.216;-1.698;2023-06-14T03:10:10;27.80;;;25.05;;
16862;SDS011;52193;48.216;-1.698;2023-06-14T03:12:38;29.40;;;26.65;;
16862;SDS011;52193;48.216;-1.698;2023-06-14T03:15:05;28.73;;;25.92;;
16862;SDS011;52193;48.216;-1.698;2023-06-14T03:17:32;28.65;;;25.70;;
16862;SDS011;52193;48.216;-1.698;2023-06-14T03:20:00;29.38;;;26.67;;
16862;SDS011;52193;48.216;-1.698;2023-06-14T03:22:30;27.80;;;24.85;;
16862;SDS011;52193;48.216;-1.698;2023-06-14T03:25:00;27.85;;;25.10;;
16862;SDS011;52193;48.216;-1.698;2023-06-14T03:27:29;30.65;;;27.58;;
16862;SDS011;52193;48.216;-1.698;2023-06-14T03:29:56;25.90;;;23.42;;
16862;SDS011;52193;48.216;-1.698;2023-06-14T03:32:23;31.05;;;28.02;;
16862;SDS011;52193;48.216;-1.698;2023-06-14T03:34:50;31.38;;;28.08;;
16862;SDS011;52193;48.216;-1.698;2023-06-14T03:37:17;30.08;;;27.10;;
16862;SDS011;52193;48.216;-1.698;2023-06-14T03:39:44;28.48;;;25.70;;
16862;SDS011;52193;48.216;-1.698;2023-06-14T03:42:14;29.73;;;26.90;;
16862;SDS011;52193;48.216;-1.698;2023-06-14T03:44:41;27.85;;;24.92;;
16862;SDS011;52193;48.216;-1.698;2023-06-14T03:47:08;27.92;;;25.23;;
16862;SDS011;52193;48.216;-1.698;2023-06-14T03:49:35;27.45;;;24.85;;
16862;SDS011;52193;48.216;-1.698;2023-06-14T03:52:02;27.60;;;24.95;;
16862;SDS011;52193;48.216;-1.698;2023-06-14T03:54:30;26.45;;;24.00;;
16862;SDS011;52193;48.216;-1.698;2023-06-14T03:56:57;30.92;;;27.65;;
16862;SDS011;52193;48.216;-1.698;2023-06-14T03:59:26;26.42;;;24.00;;
16862;SDS011;52193;48.216;-1.698;2023-06-14T04:01:53;26.85;;;24.23;;
16862;SDS011;52193;48.216;-1.698;2023-06-14T04:04:21;27.45;;;24.83;;
16862;SDS011;52193;48.216;-1.698;2023-06-14T04:06:54;25.65;;;22.92;;
16862;SDS011;52193;48.216;-1.698;2023-06-14T04:09:21;24.95;;;22.48;;
16862;SDS011;52193;48.216;-1.698;2023-06-14T04:11:49;29.58;;;25.60;;
16862;SDS011;52193;48.216;-1.698;2023-06-14T04:14:17;26.50;;;23.92;;
16862;SDS011;52193;48.216;-1.698;2023-06-14T04:16:45;29.48;;;26.58;;
16862;SDS011;52193;48.216;-1.698;2023-06-14T04:19:12;27.83;;;25.13;;
16862;SDS011;52193;48.216;-1.698;2023-06-14T04:21:39;28.63;;;25.67;;
16862;SDS011;52193;48.216;-1.698;2023-06-14T04:24:07;26.50;;;24.15;;
16862;SDS011;52193;48.216;-1.698;2023-06-14T04:26:38;24.25;;;21.90;;
16862;SDS011;52193;48.216;-1.698;2023-06-14T04:29:05;25.60;;;23.20;;
16862;SDS011;52193;48.216;-1.698;2023-06-14T04:31:32;25.98;;;23.38;;
16862;SDS011;52193;48.216;-1.698;2023-06-14T04:34:04;24.55;;;22.27;;
16862;SDS011;52193;48.216;-1.698;2023-06-14T04:36:31;23.83;;;21.67;;
16862;SDS011;52193;48.216;-1.698;2023-06-14T04:38:59;22.50;;;20.33;;
16862;SDS011;52193;48.216;-1.698;2023-06-14T04:41:29;22.42;;;20.42;;
16862;SDS011;52193;48.216;-1.698;2023-06-14T04:43:56;23.45;;;21.05;;
16862;SDS011;52193;48.216;-1.698;2023-06-14T04:46:26;26.05;;;23.40;;
16862;SDS011;52193;48.216;-1.698;2023-06-14T04:48:53;25.10;;;22.70;;
16862;SDS011;52193;48.216;-1.698;2023-06-14T04:51:23;24.05;;;21.42;;
16862;SDS011;52193;48.216;-1.698;2023-06-14T04:53:54;24.77;;;22.48;;
16862;SDS011;52193;48.216;-1.698;2023-06-14T04:56:23;24.63;;;22.20;;
16862;SDS011;52193;48.216;-1.698;2023-06-14T04:58:51;23.58;;;21.17;;
16862;SDS011;52193;48.216;-1.698;2023-06-14T05:01:18;23.65;;;21.20;;
16862;SDS011;52193;48.216;-1.698;2023-06-14T05:03:46;25.00;;;22.63;;
16862;SDS011;52193;48.216;-1.698;2023-06-14T05:06:14;22.70;;;20.50;;
16862;SDS011;52193;48.216;-1.698;2023-06-14T05:08:43;21.95;;;19.80;;
16862;SDS011;52193;48.216;-1.698;2023-06-14T05:11:10;23.83;;;21.52;;
16862;SDS011;52193;48.216;-1.698;2023-06-14T05:13:37;22.73;;;20.50;;
16862;SDS011;52193;48.216;-1.698;2023-06-14T05:16:05;20.65;;;18.73;;
16862;SDS011;52193;48.216;-1.698;2023-06-14T05:18:32;23.40;;;21.00;;
16862;SDS011;52193;48.216;-1.698;2023-06-14T05:21:00;20.80;;;18.75;;
16862;SDS011;52193;48.216;-1.698;2023-06-14T05:23:27;19.48;;;17.75;;
16862;SDS011;52193;48.216;-1.698;2023-06-14T05:25:55;19.88;;;17.98;;
16862;SDS011;52193;48.216;-1.698;2023-06-14T05:28:22;21.92;;;19.30;;
16862;SDS011;52193;48.216;-1.698;2023-06-14T05:30:49;20.15;;;18.05;;
16862;SDS011;52193;48.216;-1.698;2023-06-14T05:33:17;20.20;;;18.10;;
16862;SDS011;52193;48.216;-1.698;2023-06-14T05:35:44;19.88;;;17.75;;
16862;SDS011;52193;48.216;-1.698;2023-06-14T05:38:12;19.52;;;17.45;;
16862;SDS011;52193;48.216;-1.698;2023-06-14T05:40:38;18.13;;;16.35;;
16862;SDS011;52193;48.216;-1.698;2023-06-14T05:43:07;18.95;;;17.02;;
16862;SDS011;52193;48.216;-1.698;2023-06-14T05:45:34;19.90;;;17.85;;
16862;SDS011;52193;48.216;-1.698;2023-06-14T05:48:01;18.80;;;16.55;;
16862;SDS011;52193;48.216;-1.698;2023-06-14T05:50:27;17.60;;;16.00;;
16862;SDS011;52193;48.216;-1.698;2023-06-14T05:52:54;17.83;;;16.13;;
16862;SDS011;52193;48.216;-1.698;2023-06-14T05:55:21;15.20;;;13.75;;
16862;SDS011;52193;48.216;-1.698;2023-06-14T05:57:48;14.73;;;13.40;;
16862;SDS011;52193;48.216;-1.698;2023-06-14T06:00:17;15.93;;;14.52;;
16862;SDS011;52193;48.216;-1.698;2023-06-14T06:02:45;15.48;;;14.20;;
16862;SDS011;52193;48.216;-1.698;2023-06-14T06:05:14;16.25;;;14.65;;
16862;SDS011;52193;48.216;-1.698;2023-06-14T06:07:42;16.63;;;15.02;;
16862;SDS011;52193;48.216;-1.698;2023-06-14T06:10:09;16.80;;;15.13;;
16862;SDS011;52193;48.216;-1.698;2023-06-14T06:12:36;15.57;;;14.13;;
16862;SDS011;52193;48.216;-1.698;2023-06-14T06:15:04;13.77;;;12.57;;
16862;SDS011;52193;48.216;-1.698;2023-06-14T06:17:34;15.65;;;13.73;;
16862;SDS011;52193;48.216;-1.698;2023-06-14T06:20:01;12.88;;;11.77;;
16862;SDS011;52193;48.216;-1.698;2023-06-14T06:22:28;15.25;;;13.60;;
16862;SDS011;52193;48.216;-1.698;2023-06-14T06:24:55;14.57;;;13.18;;
16862;SDS011;52193;48.216;-1.698;2023-06-14T06:27:22;14.27;;;12.98;;
16862;SDS011;52193;48.216;-1.698;2023-06-14T06:29:49;13.50;;;12.38;;
16862;SDS011;52193;48.216;-1.698;2023-06-14T06:32:16;16.13;;;14.30;;
16862;SDS011;52193;48.216;-1.698;2023-06-14T06:34:45;13.52;;;12.35;;
16862;SDS011;52193;48.216;-1.698;2023-06-14T06:37:12;14.27;;;12.70;;
16862;SDS011;52193;48.216;-1.698;2023-06-14T06:39:39;15.05;;;13.07;;
16862;SDS011;52193;48.216;-1.698;2023-06-14T06:42:06;13.68;;;12.38;;
16862;SDS011;52193;48.216;-1.698;2023-06-14T06:44:33;12.75;;;11.55;;
16862;SDS011;52193;48.216;-1.698;2023-06-14T06:47:00;12.05;;;11.07;;
16862;SDS011;52193;48.216;-1.698;2023-06-14T06:49:27;12.80;;;11.75;;
16862;SDS011;52193;48.216;-1.698;2023-06-14T06:52:01;15.25;;;12.25;;
16862;SDS011;52193;48.216;-1.698;2023-06-14T06:54:29;13.40;;;12.20;;
16862;SDS011;52193;48.216;-1.698;2023-06-14T06:56:56;13.77;;;12.57;;
16862;SDS011;52193;48.216;-1.698;2023-06-14T06:59:24;13.25;;;12.00;;
16862;SDS011;52193;48.216;-1.698;2023-06-14T07:01:51;13.65;;;12.35;;
16862;SDS011;52193;48.216;-1.698;2023-06-14T07:04:18;12.13;;;10.93;;
16862;SDS011;52193;48.216;-1.698;2023-06-14T07:06:45;11.75;;;10.57;;
16862;SDS011;52193;48.216;-1.698;2023-06-14T07:09:14;11.27;;;9.80;;
16862;SDS011;52193;48.216;-1.698;2023-06-14T07:11:43;13.18;;;11.90;;
16862;SDS011;52193;48.216;-1.698;2023-06-14T07:14:10;12.25;;;11.10;;
16862;SDS011;52193;48.216;-1.698;2023-06-14T07:16:37;11.73;;;10.63;;
16862;SDS011;52193;48.216;-1.698;2023-06-14T07:19:06;11.98;;;10.95;;
16862;SDS011;52193;48.216;-1.698;2023-06-14T07:21:34;10.75;;;9.73;;
16862;SDS011;52193;48.216;-1.698;2023-06-14T07:24:02;12.23;;;11.07;;
16862;SDS011;52193;48.216;-1.698;2023-06-14T07:26:32;12.77;;;11.68;;
16862;SDS011;52193;48.216;-1.698;2023-06-14T07:29:00;12.15;;;11.05;;
16862;SDS011;52193;48.216;-1.698;2023-06-14T07:31:27;10.68;;;9.65;;
16862;SDS011;52193;48.216;-1.698;2023-06-14T07:33:54;12.85;;;11.60;;
16862;SDS011;52193;48.216;-1.698;2023-06-14T07:36:21;12.48;;;11.45;;
16862;SDS011;52193;48.216;-1.698;2023-06-14T07:38:48;11.68;;;10.48;;
16862;SDS011;52193;48.216;-1.698;2023-06-14T07:41:15;11.20;;;10.02;;
16862;SDS011;52193;48.216;-1.698;2023-06-14T07:43:44;11.75;;;10.65;;
16862;SDS011;52193;48.216;-1.698;2023-06-14T07:46:11;13.80;;;12.55;;
16862;SDS011;52193;48.216;-1.698;2023-06-14T07:48:38;11.80;;;10.60;;
16862;SDS011;52193;48.216;-1.698;2023-06-14T07:51:05;11.73;;;10.60;;
16862;SDS011;52193;48.216;-1.698;2023-06-14T07:53:31;10.85;;;10.02;;
16862;SDS011;52193;48.216;-1.698;2023-06-14T07:55:58;10.10;;;9.20;;
16862;SDS011;52193;48.216;-1.698;2023-06-14T07:58:26;10.93;;;9.82;;
16862;SDS011;52193;48.216;-1.698;2023-06-14T08:00:54;11.43;;;8.68;;
16862;SDS011;52193;48.216;-1.698;2023-06-14T08:03:21;10.48;;;9.50;;
16862;SDS011;52193;48.216;-1.698;2023-06-14T08:05:48;10.65;;;9.77;;
16862;SDS011;52193;48.216;-1.698;2023-06-14T08:08:16;10.95;;;9.82;;
16862;SDS011;52193;48.216;-1.698;2023-06-14T08:10:43;9.25;;;8.40;;
16862;SDS011;52193;48.216;-1.698;2023-06-14T08:13:11;8.57;;;7.90;;
16862;SDS011;52193;48.216;-1.698;2023-06-14T08:15:38;8.15;;;7.47;;
16862;SDS011;52193;48.216;-1.698;2023-06-14T08:18:06;8.98;;;8.18;;
16862;SDS011;52193;48.216;-1.698;2023-06-14T08:20:33;11.73;;;9.68;;
16862;SDS011;52193;48.216;-1.698;2023-06-14T08:23:00;9.02;;;8.13;;
16862;SDS011;52193;48.216;-1.698;2023-06-14T08:25:29;10.75;;;8.85;;
16862;SDS011;52193;48.216;-1.698;2023-06-14T08:27:56;10.38;;;8.98;;
16862;SDS011;52193;48.216;-1.698;2023-06-14T08:30:23;8.63;;;7.80;;
16862;SDS011;52193;48.216;-1.698;2023-06-14T08:32:50;8.52;;;7.63;;
16862;SDS011;52193;48.216;-1.698;2023-06-14T08:35:19;7.75;;;7.05;;
16862;SDS011;52193;48.216;-1.698;2023-06-14T08:37:45;7.60;;;6.85;;
16862;SDS011;52193;48.216;-1.698;2023-06-14T08:40:18;7.40;;;6.85;;
16862;SDS011;52193;48.216;-1.698;2023-06-14T08:42:53;7.15;;;6.22;;
16862;SDS011;52193;48.216;-1.698;2023-06-14T08:45:21;8.18;;;7.47;;
16862;SDS011;52193;48.216;-1.698;2023-06-14T08:47:48;7.65;;;6.60;;
16862;SDS011;52193;48.216;-1.698;2023-06-14T08:50:20;7.32;;;6.65;;
16862;SDS011;52193;48.216;-1.698;2023-06-14T08:52:49;7.18;;;6.47;;
16862;SDS011;52193;48.216;-1.698;2023-06-14T08:55:20;6.03;;;5.57;;
16862;SDS011;52193;48.216;-1.698;2023-06-14T08:57:51;9.93;;;7.38;;
16862;SDS011;52193;48.216;-1.698;2023-06-14T09:00:19;6.78;;;6.18;;
16862;SDS011;52193;48.216;-1.698;2023-06-14T09:02:47;6.93;;;6.22;;
16862;SDS011;52193;48.216;-1.698;2023-06-14T09:05:15;5.82;;;5.43;;
16862;SDS011;52193;48.216;-1.698;2023-06-14T09:07:44;5.85;;;5.35;;
16862;SDS011;52193;48.216;-1.698;2023-06-14T09:10:14;6.93;;;5.57;;
16862;SDS011;52193;48.216;-1.698;2023-06-14T09:12:42;6.43;;;5.93;;
16862;SDS011;52193;48.216;-1.698;2023-06-14T09:15:09;4.88;;;4.57;;
16862;SDS011;52193;48.216;-1.698;2023-06-14T09:17:37;5.57;;;5.07;;
16862;SDS011;52193;48.216;-1.698;2023-06-14T09:20:05;5.07;;;4.57;;
16862;SDS011;52193;48.216;-1.698;2023-06-14T09:22:34;5.43;;;5.00;;
16862;SDS011;52193;48.216;-1.698;2023-06-14T09:25:03;5.53;;;4.97;;
16862;SDS011;52193;48.216;-1.698;2023-06-14T09:27:31;5.78;;;5.28;;
16862;SDS011;52193;48.216;-1.698;2023-06-14T09:29:59;7.13;;;5.75;;
16862;SDS011;52193;48.216;-1.698;2023-06-14T09:32:26;5.13;;;4.72;;
16862;SDS011;52193;48.216;-1.698;2023-06-14T09:34:53;5.38;;;4.50;;
16862;SDS011;52193;48.216;-1.698;2023-06-14T09:37:27;4.90;;;4.57;;
16862;SDS011;52193;48.216;-1.698;2023-06-14T09:39:55;8.00;;;6.07;;
16862;SDS011;52193;48.216;-1.698;2023-06-14T09:42:24;5.93;;;4.97;;
16862;SDS011;52193;48.216;-1.698;2023-06-14T09:44:53;6.30;;;5.45;;
16862;SDS011;52193;48.216;-1.698;2023-06-14T09:47:20;7.97;;;7.00;;
16862;SDS011;52193;48.216;-1.698;2023-06-14T09:49:48;11.88;;;6.18;;
16862;SDS011;52193;48.216;-1.698;2023-06-14T09:52:25;6.93;;;5.85;;
16862;SDS011;52193;48.216;-1.698;2023-06-14T09:54:53;5.93;;;5.43;;
16862;SDS011;52193;48.216;-1.698;2023-06-14T09:57:22;6.78;;;5.90;;
16862;SDS011;52193;48.216;-1.698;2023-06-14T09:59:52;11.35;;;6.95;;
16862;SDS011;52193;48.216;-1.698;2023-06-14T10:02:24;8.88;;;6.18;;
16862;SDS011;52193;48.216;-1.698;2023-06-14T10:04:56;4.63;;;4.32;;
16862;SDS011;52193;48.216;-1.698;2023-06-14T10:07:34;5.97;;;5.47;;
16862;SDS011;52193;48.216;-1.698;2023-06-14T10:10:05;7.18;;;5.55;;
16862;SDS011;52193;48.216;-1.698;2023-06-14T10:12:33;8.02;;;6.20;;
16862;SDS011;52193;48.216;-1.698;2023-06-14T10:15:00;6.00;;;5.50;;
16862;SDS011;52193;48.216;-1.698;2023-06-14T10:17:31;6.95;;;6.25;;
16862;SDS011;52193;48.216;-1.698;2023-06-14T10:20:07;5.93;;;5.32;;
16862;SDS011;52193;48.216;-1.698;2023-06-14T10:22:45;5.43;;;4.90;;
16862;SDS011;52193;48.216;-1.698;2023-06-14T10:25:25;9.38;;;5.35;;
16862;SDS011;52193;48.216;-1.698;2023-06-14T10:27:56;6.70;;;5.32;;
16862;SDS011;52193;48.216;-1.698;2023-06-14T10:30:30;12.35;;;6.70;;
16862;SDS011;52193;48.216;-1.698;2023-06-14T10:33:03;9.38;;;6.63;;
16862;SDS011;52193;48.216;-1.698;2023-06-14T10:35:31;8.43;;;6.60;;
16862;SDS011;52193;48.216;-1.698;2023-06-14T10:38:07;6.45;;;5.85;;
16862;SDS011;52193;48.216;-1.698;2023-06-14T10:40:34;6.40;;;5.65;;
16862;SDS011;52193;48.216;-1.698;2023-06-14T10:48:40;9.25;;;5.80;;
16862;SDS011;52193;48.216;-1.698;2023-06-14T10:51:13;7.45;;;5.63;;
16862;SDS011;52193;48.216;-1.698;2023-06-14T10:53:48;6.13;;;5.47;;
16862;SDS011;52193;48.216;-1.698;2023-06-14T10:56:28;7.45;;;5.18;;
16862;SDS011;52193;48.216;-1.698;2023-06-14T10:58:56;5.20;;;4.70;;
16862;SDS011;52193;48.216;-1.698;2023-06-14T11:01:28;5.75;;;5.25;;
16862;SDS011;52193;48.216;-1.698;2023-06-14T11:04:09;7.03;;;5.57;;
16862;SDS011;52193;48.216;-1.698;2023-06-14T11:06:44;6.32;;;5.70;;
16862;SDS011;52193;48.216;-1.698;2023-06-14T11:12:31;4.95;;;4.55;;
16862;SDS011;52193;48.216;-1.698;2023-06-14T11:15:01;5.88;;;5.38;;
16862;SDS011;52193;48.216;-1.698;2023-06-14T11:17:29;7.70;;;5.75;;
16862;SDS011;52193;48.216;-1.698;2023-06-14T11:20:07;5.72;;;5.22;;
16862;SDS011;52193;48.216;-1.698;2023-06-14T11:22:38;5.05;;;4.65;;
16862;SDS011;52193;48.216;-1.698;2023-06-14T11:25:09;5.95;;;5.45;;
16862;SDS011;52193;48.216;-1.698;2023-06-14T11:27:37;6.20;;;5.55;;
16862;SDS011;52193;48.216;-1.698;2023-06-14T11:30:06;5.20;;;4.25;;
16862;SDS011;52193;48.216;-1.698;2023-06-14T11:32:34;4.40;;;4.10;;
16862;SDS011;52193;48.216;-1.698;2023-06-14T11:35:01;5.47;;;4.97;;
16862;SDS011;52193;48.216;-1.698;2023-06-14T11:37:29;4.10;;;3.88;;
16862;SDS011;52193;48.216;-1.698;2023-06-14T11:39:58;4.78;;;4.38;;
16862;SDS011;52193;48.216;-1.698;2023-06-14T11:42:27;4.47;;;4.07;;
16862;SDS011;52193;48.216;-1.698;2023-06-14T11:44:55;5.20;;;4.20;;
16862;SDS011;52193;48.216;-1.698;2023-06-14T11:47:22;6.38;;;4.95;;
16862;SDS011;52193;48.216;-1.698;2023-06-14T11:49:49;5.40;;;5.00;;
16862;SDS011;52193;48.216;-1.698;2023-06-14T11:52:16;5.28;;;4.78;;
16862;SDS011;52193;48.216;-1.698;2023-06-14T11:54:44;5.10;;;4.70;;
16862;SDS011;52193;48.216;-1.698;2023-06-14T11:57:14;5.32;;;4.82;;
16862;SDS011;52193;48.216;-1.698;2023-06-14T11:59:43;5.07;;;4.63;;
16862;SDS011;52193;48.216;-1.698;2023-06-14T12:02:13;6.35;;;4.57;;
16862;SDS011;52193;48.216;-1.698;2023-06-14T12:04:40;5.40;;;4.63;;
16862;SDS011;52193;48.216;-1.698;2023-06-14T12:07:10;5.70;;;5.20;;
16862;SDS011;52193;48.216;-1.698;2023-06-14T12:09:40;5.18;;;4.75;;
16862;SDS011;52193;48.216;-1.698;2023-06-14T12:12:09;5.32;;;4.45;;
16862;SDS011;52193;48.216;-1.698;2023-06-14T12:14:36;6.03;;;5.45;;
16862;SDS011;52193;48.216;-1.698;2023-06-14T12:17:05;5.70;;;5.13;;
16862;SDS011;52193;48.216;-1.698;2023-06-14T12:19:32;5.05;;;4.55;;
16862;SDS011;52193;48.216;-1.698;2023-06-14T12:22:07;4.60;;;4.30;;
16862;SDS011;52193;48.216;-1.698;2023-06-14T12:24:36;7.60;;;4.95;;
16862;SDS011;52193;48.216;-1.698;2023-06-14T12:27:03;4.35;;;4.05;;
16862;SDS011;52193;48.216;-1.698;2023-06-14T12:29:31;4.63;;;4.32;;
16862;SDS011;52193;48.216;-1.698;2023-06-14T12:31:58;5.28;;;4.88;;
16862;SDS011;52193;48.216;-1.698;2023-06-14T12:34:27;5.15;;;4.68;;
16862;SDS011;52193;48.216;-1.698;2023-06-14T12:36:54;4.85;;;4.50;;
16862;SDS011;52193;48.216;-1.698;2023-06-14T12:39:21;4.80;;;4.40;;
16862;SDS011;52193;48.216;-1.698;2023-06-14T12:41:49;4.28;;;3.97;;
16862;SDS011;52193;48.216;-1.698;2023-06-14T12:44:16;4.57;;;4.20;;
16862;SDS011;52193;48.216;-1.698;2023-06-14T12:46:43;4.53;;;4.13;;
16862;SDS011;52193;48.216;-1.698;2023-06-14T12:49:11;6.18;;;4.88;;
16862;SDS011;52193;48.216;-1.698;2023-06-14T12:51:39;4.25;;;3.88;;
16862;SDS011;52193;48.216;-1.698;2023-06-14T12:54:06;4.55;;;4.15;;
16862;SDS011;52193;48.216;-1.698;2023-06-14T12:56:33;4.50;;;4.18;;
16862;SDS011;52193;48.216;-1.698;2023-06-14T12:59:00;4.63;;;4.13;;
16862;SDS011;52193;48.216;-1.698;2023-06-14T13:01:27;5.53;;;4.10;;
16862;SDS011;52193;48.216;-1.698;2023-06-14T13:03:54;4.60;;;4.20;;
16862;SDS011;52193;48.216;-1.698;2023-06-14T13:06:21;4.68;;;4.18;;
16862;SDS011;52193;48.216;-1.698;2023-06-14T13:08:51;4.97;;;4.43;;
16862;SDS011;52193;48.216;-1.698;2023-06-14T13:11:20;5.65;;;3.90;;
16862;SDS011;52193;48.216;-1.698;2023-06-14T13:13:46;4.38;;;3.97;;
16862;SDS011;52193;48.216;-1.698;2023-06-14T13:16:13;4.93;;;3.85;;
16862;SDS011;52193;48.216;-1.698;2023-06-14T13:18:40;4.70;;;4.30;;
16862;SDS011;52193;48.216;-1.698;2023-06-14T13:21:07;4.55;;;4.15;;
16862;SDS011;52193;48.216;-1.698;2023-06-14T13:23:34;4.38;;;3.97;;
16862;SDS011;52193;48.216;-1.698;2023-06-14T13:26:02;6.18;;;4.45;;
16862;SDS011;52193;48.216;-1.698;2023-06-14T13:28:29;4.85;;;4.45;;
16862;SDS011;52193;48.216;-1.698;2023-06-14T13:30:57;5.95;;;4.57;;
16862;SDS011;52193;48.216;-1.698;2023-06-14T13:33:24;4.40;;;4.05;;
16862;SDS011;52193;48.216;-1.698;2023-06-14T13:35:51;4.40;;;4.00;;
16862;SDS011;52193;48.216;-1.698;2023-06-14T13:38:18;4.40;;;3.97;;
16862;SDS011;52193;48.216;-1.698;2023-06-14T13:40:45;3.97;;;3.67;;
16862;SDS011;52193;48.216;-1.698;2023-06-14T13:43:14;4.22;;;3.83;;
16862;SDS011;52193;48.216;-1.698;2023-06-14T13:45:40;4.13;;;3.72;;
16862;SDS011;52193;48.216;-1.698;2023-06-14T13:48:07;4.35;;;3.50;;
16862;SDS011;52193;48.216;-1.698;2023-06-14T13:50:35;5.35;;;4.07;;
16862;SDS011;52193;48.216;-1.698;2023-06-14T13:53:02;4.15;;;3.85;;
16862;SDS011;52193;48.216;-1.698;2023-06-14T13:55:29;3.50;;;3.30;;
16862;SDS011;52193;48.216;-1.698;2023-06-14T13:57:56;5.00;;;3.78;;
16862;SDS011;52193;48.216;-1.698;2023-06-14T14:00:24;6.07;;;3.92;;
16862;SDS011;52193;48.216;-1.698;2023-06-14T14:02:51;3.75;;;3.55;;
16862;SDS011;52193;48.216;-1.698;2023-06-14T14:05:18;4.20;;;3.80;;
16862;SDS011;52193;48.216;-1.698;2023-06-14T14:07:45;3.58;;;3.38;;
16862;SDS011;52193;48.216;-1.698;2023-06-14T14:10:12;3.67;;;3.47;;
16862;SDS011;52193;48.216;-1.698;2023-06-14T14:12:39;3.85;;;3.55;;
16862;SDS011;52193;48.216;-1.698;2023-06-14T14:15:06;3.90;;;3.60;;
16862;SDS011;52193;48.216;-1.698;2023-06-14T14:17:39;4.03;;;3.72;;
16862;SDS011;52193;48.216;-1.698;2023-06-14T14:20:06;3.95;;;3.55;;
16862;SDS011;52193;48.216;-1.698;2023-06-14T14:22:34;3.40;;;3.20;;
16862;SDS011;52193;48.216;-1.698;2023-06-14T14:25:01;3.60;;;3.30;;
16862;SDS011;52193;48.216;-1.698;2023-06-14T14:27:27;3.88;;;3.58;;
16862;SDS011;52193;48.216;-1.698;2023-06-14T14:29:54;3.50;;;3.20;;
16862;SDS011;52193;48.216;-1.698;2023-06-14T14:32:21;5.55;;;4.03;;
16862;SDS011;52193;48.216;-1.698;2023-06-14T14:34:49;3.42;;;3.22;;